Time;durP1;ratioP1;P1;durP2;ratioP2;P2;SDS_P1;SDS_P2;PMS_P1;PMS_P2;Temp;Humidity;BMP_temperature;BMP_pressure;BME280_temperature;BME280_humidity;BME280_pressure;Samples;Min_cycle;Max_cycle;Signal;HPM_P1;HPM_P2
2022/10/28 00:01:19;;;;;;;1.83;1.70;;;20.90;66.90;;;;;;5064310;28;43980;-60
2022/10/28 00:03:54;;;;;;;1.55;1.45;;;20.90;66.90;;;;;;5071395;28;43489;-60
2022/10/28 00:06:28;;;;;;;1.60;1.50;;;20.90;66.90;;;;;;5074327;28;43503;-60
2022/10/28 00:08:57;;;;;;;1.75;1.60;;;20.90;66.90;;;;;;5062081;28;44970;-60
2022/10/28 00:11:32;;;;;;;1.50;1.40;;;20.90;66.90;;;;;;5066132;28;43472;-60
2022/10/28 00:14:03;;;;;;;1.52;1.42;;;20.90;66.90;;;;;;5079376;28;43425;-60
2022/10/28 00:16:33;;;;;;;1.50;1.40;;;20.90;67.00;;;;;;5075531;28;43456;-60
2022/10/28 00:19:02;;;;;;;1.53;1.43;;;20.90;67.00;;;;;;5077744;28;44232;-60
2022/10/28 00:21:32;;;;;;;1.98;1.85;;;20.90;67.10;;;;;;5077116;28;43685;-60
2022/10/28 00:23:59;;;;;;;1.70;1.60;;;20.80;66.90;;;;;;5067046;28;43485;-60
2022/10/28 00:26:30;;;;;;;1.83;1.50;;;20.80;66.90;;;;;;5074618;28;43604;-60
2022/10/28 00:29:00;;;;;;;1.50;1.40;;;20.90;67.00;;;;;;5053409;28;44900;-60
2022/10/28 00:31:29;;;;;;;1.73;1.63;;;20.80;67.60;;;;;;5078016;28;44163;-60
2022/10/28 00:34:02;;;;;;;2.05;1.60;;;20.90;67.00;;;;;;5078888;28;43405;-60
2022/10/28 00:36:32;;;;;;;1.65;1.55;;;20.80;66.90;;;;;;5062210;28;43526;-60
2022/10/28 00:39:00;;;;;;;1.70;1.48;;;20.80;67.60;;;;;;5076075;28;44041;-60
2022/10/28 00:41:34;;;;;;;1.50;1.40;;;20.80;67.00;;;;;;5052408;28;43480;-60
2022/10/28 00:44:40;;;;;;;1.63;1.52;;;20.80;67.00;;;;;;5075093;28;43375;-60
2022/10/28 00:47:25;;;;;;;1.38;1.27;;;20.80;67.00;;;;;;5072864;28;43739;-60
2022/10/28 00:50:02;;;;;;;1.92;1.60;;;20.80;67.00;;;;;;5077051;28;45314;-60
2022/10/28 00:52:31;;;;;;;1.77;1.67;;;20.80;66.90;;;;;;5076580;28;43957;-60
2022/10/28 00:55:01;;;;;;;1.50;1.40;;;20.80;66.90;;;;;;5078509;28;43431;-60
2022/10/28 00:57:33;;;;;;;1.48;1.38;;;20.80;66.80;;;;;;5067540;28;43402;-60
2022/10/28 01:00:05;;;;;;;1.10;1.10;;;20.80;66.90;;;;;;5066135;28;43828;-60
2022/10/28 01:02:42;;;;;;;1.42;1.33;;;20.80;66.90;;;;;;5081559;28;43407;-60
2022/10/28 01:05:12;;;;;;;1.60;1.50;;;20.80;66.80;;;;;;5079317;28;43492;-60
2022/10/28 01:07:40;;;;;;;1.98;1.40;;;20.80;66.90;;;;;;5079034;28;43538;-60
2022/10/28 01:10:09;;;;;;;1.70;1.60;;;20.80;67.00;;;;;;5080761;28;44968;-60
2022/10/28 01:12:36;;;;;;;1.52;1.42;;;20.80;66.90;;;;;;5080706;28;43993;-60
2022/10/28 01:15:32;;;;;;;1.40;1.30;;;20.80;67.00;;;;;;5081723;28;43395;-60
2022/10/28 01:18:11;;;;;;;1.70;1.52;;;20.80;66.90;;;;;;5067624;28;43431;-60
2022/10/28 01:21:07;;;;;;;1.45;1.27;;;20.80;67.00;;;;;;5080595;28;43776;-60
2022/10/28 01:23:49;;;;;;;2.00;1.80;;;20.80;67.00;;;;;;5032289;28;43468;-60
2022/10/28 01:27:05;;;;;;;1.52;1.42;;;20.70;67.00;;;;;;5074045;28;43371;-60
2022/10/28 01:30:20;;;;;;;1.50;1.40;;;20.70;66.90;;;;;;4977548;28;43552;-60
2022/10/28 01:32:51;;;;;;;1.63;1.52;;;20.70;67.10;;;;;;5050179;28;43806;-60
2022/10/28 01:35:39;;;;;;;2.08;1.50;;;20.70;67.00;;;;;;5077712;28;43413;-60
2022/10/28 01:38:29;;;;;;;1.88;1.77;;;20.70;67.00;;;;;;5074188;28;43575;-60
2022/10/28 01:41:05;;;;;;;1.73;1.63;;;20.70;67.10;;;;;;5066888;28;43538;-60
2022/10/28 01:43:55;;;;;;;2.10;1.60;;;20.70;67.00;;;;;;5078246;28;43906;-60
2022/10/28 01:46:36;;;;;;;1.57;1.47;;;20.70;67.00;;;;;;5024354;28;43963;-60
2022/10/28 01:49:22;;;;;;;1.57;1.47;;;20.70;67.00;;;;;;5077118;28;43529;-60
2022/10/28 01:51:54;;;;;;;1.95;1.48;;;20.70;67.00;;;;;;5063859;28;43561;-60
2022/10/28 01:54:26;;;;;;;2.55;1.73;;;20.60;66.90;;;;;;5074963;28;45005;-60
2022/10/28 01:56:56;;;;;;;1.70;1.60;;;20.70;67.00;;;;;;5077460;28;43491;-60
2022/10/28 01:59:27;;;;;;;1.58;1.48;;;20.70;67.00;;;;;;5070358;28;43956;-60
2022/10/28 02:01:55;;;;;;;1.63;1.45;;;20.70;67.00;;;;;;5071443;28;43468;-60
2022/10/28 02:04:23;;;;;;;1.75;1.65;;;20.70;67.00;;;;;;5068339;28;43852;-60
2022/10/28 02:06:53;;;;;;;1.60;1.50;;;20.70;66.90;;;;;;5076635;28;44125;-60
2022/10/28 02:09:28;;;;;;;1.60;1.50;;;20.70;67.00;;;;;;5063333;28;43505;-60
2022/10/28 02:12:13;;;;;;;1.77;1.50;;;20.60;66.90;;;;;;5073332;28;43445;-60
2022/10/28 02:15:06;;;;;;;1.77;1.63;;;20.60;67.00;;;;;;5077024;28;45118;-60
2022/10/28 02:18:26;;;;;;;2.67;1.70;;;20.60;67.00;;;;;;5062671;28;43458;-60
2022/10/28 02:21:13;;;;;;;1.50;1.40;;;20.60;66.90;;;;;;5018731;28;43596;-60
2022/10/28 02:23:51;;;;;;;1.58;1.48;;;20.60;66.90;;;;;;5062958;28;43553;-60
2022/10/28 02:26:45;;;;;;;1.40;1.40;;;20.60;67.00;;;;;;5081978;28;44058;-60
2022/10/28 02:29:25;;;;;;;1.70;1.60;;;20.60;67.00;;;;;;5034889;28;43990;-60
2022/10/28 02:31:58;;;;;;;1.85;1.60;;;20.60;66.90;;;;;;5080384;28;43408;-60
2022/10/28 02:34:37;;;;;;;1.65;1.55;;;20.60;66.90;;;;;;5067679;28;43518;-60
2022/10/28 02:37:10;;;;;;;1.67;1.58;;;20.60;67.00;;;;;;5079997;28;44064;-60
2022/10/28 02:39:45;;;;;;;1.80;1.65;;;20.60;67.00;;;;;;5062823;28;43975;-60
2022/10/28 02:42:24;;;;;;;1.70;1.60;;;20.60;66.90;;;;;;5066786;28;43483;-60
2022/10/28 02:45:05;;;;;;;1.70;1.60;;;20.60;66.90;;;;;;5068271;28;43436;-60
2022/10/28 02:47:36;;;;;;;1.73;1.63;;;20.60;66.90;;;;;;5079749;28;44061;-60
2022/10/28 02:50:08;;;;;;;1.58;1.48;;;20.50;66.90;;;;;;5077366;28;43431;-60
2022/10/28 02:52:38;;;;;;;2.25;1.40;;;20.60;66.90;;;;;;5069651;28;43488;-60
2022/10/28 02:55:06;;;;;;;2.63;1.70;;;20.50;66.90;;;;;;5080342;28;43613;-60
2022/10/28 02:57:37;;;;;;;1.70;1.60;;;20.50;66.90;;;;;;5079452;28;45004;-60
2022/10/28 03:00:06;;;;;;;;;;;20.50;66.90;;;;;;5077121;28;43978;-60
2022/10/28 03:02:34;;;;;;;1.60;1.50;;;20.50;66.90;;;;;;5079831;28;43407;-60
2022/10/28 03:05:04;;;;;;;1.73;1.63;;;20.50;67.00;;;;;;5063353;28;43571;-60
2022/10/28 03:07:32;;;;;;;1.52;1.42;;;20.50;67.00;;;;;;5062513;28;44718;-60
2022/10/28 03:09:59;;;;;;;2.05;1.75;;;20.50;66.90;;;;;;5077972;28;43388;-60
2022/10/28 03:12:26;;;;;;;1.75;1.65;;;20.50;66.90;;;;;;5079031;28;43454;-60
2022/10/28 03:14:54;;;;;;;1.50;1.40;;;20.50;66.90;;;;;;5080040;28;43629;-60
2022/10/28 03:17:21;;;;;;;1.75;1.65;;;20.50;67.00;;;;;;5064498;28;44916;-60
2022/10/28 03:19:49;;;;;;;1.75;1.65;;;20.50;66.90;;;;;;5076289;27;44137;-60
2022/10/28 03:22:16;;;;;;;1.42;1.33;;;20.50;66.90;;;;;;5079832;28;43411;-60
2022/10/28 03:24:44;;;;;;;1.60;1.50;;;20.50;67.60;;;;;;5079438;28;43464;-61
2022/10/28 03:27:11;;;;;;;2.15;1.58;;;20.50;67.00;;;;;;5078106;28;45066;-61
2022/10/28 03:29:40;;;;;;;1.80;1.60;;;20.50;66.90;;;;;;5076477;28;43484;-60
2022/10/28 03:32:12;;;;;;;1.73;1.63;;;20.50;67.00;;;;;;5079812;28;43470;-60
2022/10/28 03:34:40;;;;;;;2.33;1.85;;;20.50;66.90;;;;;;5078960;28;43554;-61
2022/10/28 03:37:07;;;;;;;1.67;1.58;;;20.50;67.00;;;;;;5077945;28;44804;-60
2022/10/28 03:39:34;;;;;;;2.17;1.63;;;20.50;66.90;;;;;;5077522;28;43922;-60
2022/10/28 03:42:02;;;;;;;1.63;1.52;;;20.50;67.00;;;;;;5069933;28;43379;-60
2022/10/28 03:44:29;;;;;;;1.73;1.60;;;20.50;66.90;;;;;;5078929;28;43440;-60
2022/10/28 03:46:57;;;;;;;1.60;1.50;;;20.50;67.00;;;;;;5077790;28;45034;-60
2022/10/28 03:49:24;;;;;;;1.98;1.88;;;20.50;66.90;;;;;;5076988;28;43546;-60
2022/10/28 03:51:51;;;;;;;1.40;1.30;;;20.40;66.90;;;;;;5078438;28;43439;-60
2022/10/28 03:54:19;;;;;;;2.60;1.63;;;20.50;66.90;;;;;;5063026;28;43430;-60
2022/10/28 03:56:46;;;;;;;2.30;1.80;;;20.50;67.00;;;;;;5074704;28;44034;-60
2022/10/28 03:59:14;;;;;;;1.75;1.65;;;20.40;66.90;;;;;;5068989;28;43463;-60
2022/10/28 04:01:46;;;;;;;1.73;1.63;;;20.40;66.90;;;;;;5068812;28;43984;-60
2022/10/28 04:04:13;;;;;;;1.73;1.63;;;20.40;66.90;;;;;;5079195;28;43477;-60
2022/10/28 04:06:41;;;;;;;1.70;1.60;;;20.40;66.90;;;;;;5069053;28;45000;-60
2022/10/28 04:09:08;;;;;;;1.80;1.70;;;20.40;67.00;;;;;;5078504;28;43373;-60
2022/10/28 04:11:36;;;;;;;1.65;1.55;;;20.40;66.90;;;;;;5078696;28;43964;-60
2022/10/28 04:14:03;;;;;;;2.33;1.90;;;20.40;66.90;;;;;;5079168;28;43572;-60
2022/10/28 04:16:30;;;;;;;1.85;1.58;;;20.40;66.90;;;;;;5075133;28;44050;-60
2022/10/28 04:18:58;;;;;;;1.98;1.77;;;20.40;67.00;;;;;;5078231;28;43465;-60
2022/10/28 04:21:25;;;;;;;1.95;1.80;;;20.40;66.90;;;;;;5078786;28;43421;-60
2022/10/28 04:23:53;;;;;;;2.10;1.90;;;20.40;66.90;;;;;;5078247;28;43497;-60
2022/10/28 04:26:20;;;;;;;1.67;1.58;;;20.40;66.90;;;;;;5076162;28;44964;-60
2022/10/28 04:28:47;;;;;;;1.88;1.77;;;20.40;67.00;;;;;;5078061;28;43995;-60
2022/10/28 04:31:15;;;;;;;2.00;1.80;;;20.40;67.00;;;;;;5077900;27;43415;-60
2022/10/28 04:33:42;;;;;;;1.80;1.70;;;20.40;67.00;;;;;;5082131;28;43589;-60
2022/10/28 04:36:10;;;;;;;1.80;1.70;;;20.40;67.00;;;;;;5080047;28;44695;-60
2022/10/28 04:38:37;;;;;;;1.65;1.55;;;20.40;67.00;;;;;;5080161;28;44016;-60
2022/10/28 04:41:04;;;;;;;1.92;1.80;;;20.40;66.90;;;;;;5075222;28;43952;-60
2022/10/28 04:43:32;;;;;;;2.08;1.90;;;20.40;67.00;;;;;;5078058;28;44230;-60
2022/10/28 04:46:04;;;;;;;1.60;1.50;;;20.40;67.00;;;;;;5079779;28;44982;-60
2022/10/28 04:48:33;;;;;;;1.70;1.60;;;20.40;66.90;;;;;;5081538;28;43640;-60
2022/10/28 04:51:00;;;;;;;1.50;1.40;;;20.30;66.90;;;;;;5081475;28;43450;-60
2022/10/28 04:53:28;;;;;;;2.35;1.90;;;20.30;66.90;;;;;;5081222;28;43739;-60
2022/10/28 04:55:57;;;;;;;2.67;1.80;;;20.30;67.00;;;;;;5078631;28;45318;-60
2022/10/28 04:58:25;;;;;;;1.80;1.70;;;20.30;67.00;;;;;;5063920;28;43681;-60
2022/10/28 05:00:52;;;;;;;1.90;1.80;;;20.30;67.00;;;;;;5073159;28;43419;-60
2022/10/28 05:03:20;;;;;;;2.00;1.83;;;20.30;67.00;;;;;;5068073;28;43585;-60
2022/10/28 05:05:47;;;;;;;1.98;1.88;;;20.30;67.00;;;;;;5064453;28;44074;-60
2022/10/28 05:08:15;;;;;;;1.80;1.70;;;20.30;67.00;;;;;;5068380;28;44009;-60
2022/10/28 05:10:44;;;;;;;1.73;1.63;;;20.30;66.90;;;;;;5067466;28;43500;-60
2022/10/28 05:13:11;;;;;;;1.90;1.80;;;20.30;66.90;;;;;;5075240;28;43611;-60
2022/10/28 05:15:38;;;;;;;1.83;1.73;;;20.30;66.90;;;;;;5079781;28;44326;-60
2022/10/28 05:18:06;;;;;;;1.98;1.77;;;20.30;66.90;;;;;;5073398;28;43973;-60
2022/10/28 05:20:33;;;;;;;1.85;1.67;;;20.30;66.80;;;;;;5072957;28;43412;-60
2022/10/28 05:23:01;;;;;;;1.80;1.55;;;20.30;66.80;;;;;;5068117;28;43550;-60
2022/10/28 05:25:29;;;;;;;2.03;1.92;;;20.30;66.80;;;;;;5075072;28;43909;-60
2022/10/28 05:27:59;;;;;;;1.88;1.77;;;20.30;66.80;;;;;;5072780;28;43420;-60
2022/10/28 05:30:27;;;;;;;1.83;1.73;;;20.30;66.80;;;;;;5070927;28;43391;-60
2022/10/28 05:33:00;;;;;;;1.98;1.88;;;20.30;67.50;;;;;;5080538;28;43568;-60
2022/10/28 05:35:28;;;;;;;2.10;2.00;;;20.30;66.80;;;;;;5067713;28;44972;-59
2022/10/28 05:37:56;;;;;;;2.20;1.98;;;20.30;66.80;;;;;;5066824;28;43489;-60
2022/10/28 05:40:24;;;;;;;2.17;1.98;;;20.30;67.00;;;;;;5075249;28;43971;-60
2022/10/28 05:42:51;;;;;;;2.05;1.92;;;20.30;67.00;;;;;;5066024;28;43530;-60
2022/10/28 05:45:19;;;;;;;1.98;1.88;;;20.30;67.00;;;;;;5073523;28;43802;-60
2022/10/28 05:47:48;;;;;;;2.65;1.98;;;20.30;67.00;;;;;;5073671;28;43472;-60
2022/10/28 05:50:17;;;;;;;2.45;2.28;;;20.30;67.00;;;;;;5072110;28;43362;-59
2022/10/28 05:52:53;;;;;;;2.15;1.95;;;20.30;67.00;;;;;;5078434;28;43495;-60
2022/10/28 05:55:23;;;;;;;2.22;2.03;;;20.30;67.00;;;;;;5069767;28;44204;-60
2022/10/28 05:57:51;;;;;;;2.53;2.07;;;20.30;67.00;;;;;;5070091;28;43368;-60
2022/10/28 06:00:21;;;;;;;2.60;2.15;;;20.20;66.90;;;;;;5075223;28;43455;-60
2022/10/28 06:02:49;;;;;;;2.33;2.13;;;20.30;67.70;;;;;;5075174;28;43480;-60
2022/10/28 06:05:17;;;;;;;2.60;2.40;;;20.20;66.90;;;;;;5063087;28;44068;-60
2022/10/28 06:07:45;;;;;;;2.13;2.03;;;20.20;66.90;;;;;;5064685;28;43512;-60
2022/10/28 06:10:12;;;;;;;2.40;2.20;;;20.20;67.60;;;;;;5075475;28;43437;-60
2022/10/28 06:12:40;;;;;;;2.28;2.08;;;20.20;66.90;;;;;;5065127;28;43514;-60
2022/10/28 06:15:08;;;;;;;3.65;2.33;;;20.20;66.90;;;;;;5064489;28;44032;-60
2022/10/28 06:17:35;;;;;;;2.40;2.20;;;20.20;67.00;;;;;;5048767;28;43526;-60
2022/10/28 06:20:03;;;;;;;2.72;2.20;;;20.20;67.60;;;;;;5070662;28;43471;-60
2022/10/28 06:22:30;;;;;;;2.40;2.20;;;20.20;67.00;;;;;;5074792;28;43483;-60
2022/10/28 06:24:58;;;;;;;2.78;2.35;;;20.20;67.00;;;;;;5079580;28;43615;-61
2022/10/28 06:27:26;;;;;;;2.17;2.05;;;20.20;67.00;;;;;;5074150;28;43956;-61
2022/10/28 06:29:54;;;;;;;2.53;2.10;;;20.20;67.00;;;;;;5062376;28;43440;-60
2022/10/28 06:32:21;;;;;;;2.28;1.92;;;20.20;67.10;;;;;;5074771;28;43621;-60
2022/10/28 06:34:48;;;;;;;2.47;2.20;;;20.20;67.10;;;;;;5068732;28;44784;-61
2022/10/28 06:37:16;;;;;;;2.20;2.00;;;20.20;67.10;;;;;;5069192;28;43437;-60
2022/10/28 06:39:44;;;;;;;2.40;2.10;;;20.20;67.10;;;;;;5067526;28;43432;-60
2022/10/28 06:42:11;;;;;;;2.35;2.15;;;20.20;67.10;;;;;;5068199;28;43614;-59
2022/10/28 06:44:39;;;;;;;2.33;2.13;;;20.20;67.20;;;;;;5067139;28;45060;-60
2022/10/28 06:47:06;;;;;;;2.67;1.90;;;20.20;67.10;;;;;;5073133;28;43550;-60
2022/10/28 06:49:34;;;;;;;2.10;2.00;;;20.20;67.20;;;;;;5074138;28;43401;-60
2022/10/28 06:52:01;;;;;;;1.75;1.65;;;20.10;67.00;;;;;;5073471;28;43653;-61
2022/10/28 06:54:29;;;;;;;2.00;1.90;;;20.20;67.20;;;;;;5062051;28;43810;-60
2022/10/28 06:56:56;;;;;;;2.20;2.00;;;20.20;67.10;;;;;;5073073;28;43396;-61
2022/10/28 06:59:23;;;;;;;2.17;2.03;;;20.20;67.20;;;;;;5062728;28;43420;-59
2022/10/28 07:01:51;;;;;;;2.33;1.90;;;20.20;67.20;;;;;;5073445;28;43470;-59
2022/10/28 07:04:18;;;;;;;2.20;2.10;;;20.20;67.20;;;;;;5062028;28;45149;-60
2022/10/28 07:06:46;;;;;;;2.25;1.80;;;20.20;67.20;;;;;;5063913;28;43525;-60
2022/10/28 07:09:18;;;;;;;2.78;2.20;;;20.20;67.20;;;;;;5074974;28;43505;-59
2022/10/28 07:11:48;;;;;;;2.30;2.10;;;20.20;67.10;;;;;;5061524;28;43627;-59
2022/10/28 07:14:21;;;;;;;2.05;1.80;;;20.20;67.10;;;;;;5069496;28;44683;-59
2022/10/28 07:16:49;;;;;;;2.05;1.83;;;20.20;67.00;;;;;;5071929;28;44010;-59
2022/10/28 07:19:17;;;;;;;2.30;2.10;;;20.20;67.00;;;;;;5075944;28;43392;-60
2022/10/28 07:21:48;;;;;;;2.22;1.92;;;20.20;67.00;;;;;;5069287;28;43535;-60
2022/10/28 07:24:16;;;;;;;2.20;2.00;;;20.20;67.00;;;;;;5068716;28;44031;-60
2022/10/28 07:26:45;;;;;;;2.00;1.90;;;20.20;67.00;;;;;;5078302;28;43936;-60
2022/10/28 07:29:13;;;;;;;2.47;2.00;;;20.20;67.00;;;;;;5069301;28;43401;-60
2022/10/28 07:31:41;;;;;;;2.65;2.10;;;20.20;67.00;;;;;;5070337;28;43452;-60
2022/10/28 07:34:08;;;;;;;2.35;1.80;;;20.20;67.10;;;;;;5072416;28;44047;-60
2022/10/28 07:36:36;;;;;;;2.15;1.98;;;20.20;67.00;;;;;;5054612;28;43792;-60
2022/10/28 07:39:03;;;;;;;3.33;2.00;;;20.10;67.00;;;;;;5067033;28;43444;-60
2022/10/28 07:41:30;;;;;;;2.00;1.90;;;20.20;67.00;;;;;;5061847;28;43633;-60
2022/10/28 07:43:58;;;;;;;2.13;1.90;;;20.20;67.00;;;;;;5069057;28;44758;-60
2022/10/28 07:46:25;;;;;;;3.28;2.03;;;20.20;67.00;;;;;;5078276;28;43994;-60
2022/10/28 07:48:53;;;;;;;4.88;2.20;;;20.20;67.10;;;;;;5062183;28;43524;-60
2022/10/28 07:51:29;;;;;;;2.21;1.81;;;20.10;67.00;;;;;;5013023;28;10001603;-61
2022/10/28 07:53:57;;;;;;;2.15;2.00;;;20.20;67.10;;;;;;4540833;28;10000626;-60
2022/10/28 07:56:25;;;;;;;2.17;1.83;;;20.20;67.00;;;;;;5062888;28;44734;-60
2022/10/28 07:58:52;;;;;;;2.30;2.10;;;20.20;67.00;;;;;;5069143;28;43736;-60
2022/10/28 08:01:20;;;;;;;2.83;2.30;;;20.20;67.00;;;;;;5063462;28;43493;-60
2022/10/28 08:03:48;;;;;;;2.30;2.10;;;20.20;67.10;;;;;;5066166;28;43479;-60
2022/10/28 08:06:19;;;;;;;1.95;1.85;;;20.20;67.10;;;;;;5063714;28;44990;-59
2022/10/28 08:08:51;;;;;;;3.47;1.83;;;20.20;67.10;;;;;;5068960;28;43412;-61
2022/10/28 08:11:23;;;;;;;1.90;1.80;;;20.20;67.10;;;;;;5069367;28;43547;-60
2022/10/28 08:13:51;;;;;;;3.63;2.35;;;20.20;67.10;;;;;;5073713;28;43537;-60
2022/10/28 08:16:19;;;;;;;2.67;2.47;;;20.20;67.20;;;;;;5068621;28;44674;-60
2022/10/28 08:18:46;;;;;;;5.10;2.85;;;20.20;67.20;;;;;;5069398;28;43645;-57
2022/10/28 08:21:15;;;;;;;2.60;2.40;;;20.20;67.20;;;;;;5047705;28;43393;-59
2022/10/28 08:23:45;;;;;;;4.45;2.80;;;20.30;67.20;;;;;;5067458;28;43969;-59
2022/10/28 08:26:13;;;;;;;;;;;20.40;67.20;;;;;;4176124;28;10001086;-60
2022/10/28 08:28:41;;;;;;;2.47;2.28;;;20.40;67.80;;;;;;5068588;28;43516;-59
2022/10/28 08:31:11;;;;;;;3.90;2.45;;;20.50;67.20;;;;;;5065667;28;44994;-60
2022/10/28 08:33:41;;;;;;;2.95;2.58;;;20.60;67.00;;;;;;5066261;28;43561;-59
2022/10/28 08:36:11;;;;;;;3.13;2.30;;;20.70;66.90;;;;;;5064743;28;43519;-59
2022/10/28 08:38:38;;;;;;;3.95;2.42;;;20.80;66.80;;;;;;5067270;28;43596;-60
2022/10/28 08:41:28;;;;;;;2.78;2.50;;;20.90;66.80;;;;;;5070543;28;44994;-59
2022/10/28 08:44:17;;;;;;;4.38;2.03;;;21.10;66.70;;;;;;5066110;28;44034;-59
2022/10/28 08:47:08;;;;;;;4.78;2.20;;;21.20;66.60;;;;;;5068723;28;43522;-58
2022/10/28 08:49:39;;;;;;;3.93;2.13;;;21.30;66.40;;;;;;5064712;28;43518;-58
2022/10/28 08:52:32;;;;;;;3.03;2.00;;;21.50;66.10;;;;;;5067340;28;43900;-59
2022/10/28 08:55:22;;;;;;;3.30;2.08;;;21.60;65.90;;;;;;5068271;28;43701;-60
2022/10/28 08:57:52;;;;;;;3.97;2.40;;;21.70;65.70;;;;;;5064757;28;43710;-59
2022/10/28 09:00:21;;;;;;;2.95;2.30;;;21.80;65.70;;;;;;5064998;28;43689;-59
2022/10/28 09:03:07;;;;;;;5.47;2.13;;;21.90;65.40;;;;;;5065411;28;44996;-59
2022/10/28 09:05:34;;;;;;;2.70;1.95;;;22.00;65.20;;;;;;5064468;28;44121;-60
2022/10/28 09:08:02;;;;;;;6.05;2.70;;;22.10;65.00;;;;;;5069326;28;43458;-60
2022/10/28 09:10:59;;;;;;;3.80;2.25;;;22.30;64.80;;;;;;5065596;28;43651;-60
2022/10/28 09:13:57;;;;;;;5.15;2.20;;;22.40;64.50;;;;;;5065515;28;45095;-59
2022/10/28 09:16:25;;;;;;;2.33;2.13;;;22.60;64.20;;;;;;5070076;28;43460;-59
2022/10/28 09:18:55;;;;;;;2.75;2.28;;;22.70;64.00;;;;;;5062521;28;43530;-59
2022/10/28 09:21:40;;;;;;;2.78;1.83;;;22.70;63.80;;;;;;5072958;28;43638;-59
2022/10/28 09:24:19;;;;;;;2.10;1.90;;;22.80;63.80;;;;;;5066769;28;43849;-59
2022/10/28 09:26:58;;;;;;;3.95;2.20;;;22.80;63.60;;;;;;5072556;28;43483;-59
2022/10/28 09:29:50;;;;;;;3.50;2.00;;;22.90;63.40;;;;;;5075239;28;43392;-59
2022/10/28 09:32:35;;;;;;;3.60;2.15;;;22.90;63.30;;;;;;5066261;28;43625;-59
2022/10/28 09:35:08;;;;;;;3.70;2.15;;;22.90;63.20;;;;;;5075408;28;44074;-59
2022/10/28 09:37:40;;;;;;;3.63;2.10;;;22.90;63.20;;;;;;5076329;28;43480;-59
2022/10/28 09:40:29;;;;;;;4.57;2.47;;;22.90;63.20;;;;;;5075199;28;43356;-59
2022/10/28 09:43:15;;;;;;;3.17;2.28;;;22.90;63.20;;;;;;5077895;28;43473;-59
2022/10/28 09:45:47;;;;;;;2.20;2.08;;;22.90;63.30;;;;;;5067079;28;44991;-59
2022/10/28 09:48:40;;;;;;;3.60;2.28;;;22.80;63.30;;;;;;5074675;28;43491;-59
2022/10/28 09:51:17;;;;;;;4.00;2.30;;;22.80;63.30;;;;;;5072465;28;43365;-59
2022/10/28 09:53:57;;;;;;;3.35;2.20;;;22.80;63.40;;;;;;5063457;28;43602;-59
2022/10/28 09:56:25;;;;;;;3.78;2.35;;;22.80;63.40;;;;;;5068788;28;44992;-59
2022/10/28 09:58:56;;;;;;;2.63;2.03;;;22.70;63.50;;;;;;5045912;28;43404;-59
2022/10/28 10:01:24;;;;;;;1.95;1.80;;;22.70;63.50;;;;;;5065461;28;43420;-59
2022/10/28 10:03:52;;;;;;;2.95;2.00;;;22.70;63.60;;;;;;5071486;28;43570;-59
2022/10/28 10:06:31;;;;;;;2.35;1.88;;;22.70;63.70;;;;;;5073633;28;44555;-59
2022/10/28 10:09:00;;;;;;;2.65;1.90;;;22.60;63.70;;;;;;5063612;28;43862;-59
2022/10/28 10:11:36;;;;;;;2.03;1.83;;;22.60;63.90;;;;;;5074912;28;43399;-59
2022/10/28 10:14:28;;;;;;;2.05;1.80;;;22.60;64.00;;;;;;5080501;28;43383;-59
2022/10/28 10:16:58;;;;;;;2.40;2.20;;;22.50;64.00;;;;;;5065514;28;44725;-59
2022/10/28 10:19:26;;;;;;;2.75;1.98;;;22.50;64.10;;;;;;5074523;28;43547;-59
2022/10/28 10:21:54;;;;;;;2.53;1.98;;;22.50;64.20;;;;;;5075019;28;43369;-59
2022/10/28 10:24:23;;;;;;;2.55;1.90;;;22.50;64.20;;;;;;5074297;28;43602;-59
2022/10/28 10:26:52;;;;;;;3.20;2.00;;;22.50;64.90;;;;;;5069181;28;44220;-59
2022/10/28 10:29:21;;;;;;;2.45;1.83;;;22.50;64.40;;;;;;5053352;28;43592;-59
2022/10/28 10:32:04;;;;;;;2.10;1.90;;;22.50;64.40;;;;;;5067393;28;43458;-59
2022/10/28 10:34:32;;;;;;;2.50;2.05;;;22.50;64.40;;;;;;5054659;28;43583;-59
2022/10/28 10:37:01;;;;;;;4.32;2.20;;;22.40;64.50;;;;;;5053296;28;44039;-58
2022/10/28 10:39:36;;;;;;;2.42;1.92;;;22.40;64.50;;;;;;5070802;28;43464;-59
2022/10/28 10:42:15;;;;;;;3.38;2.10;;;22.40;64.60;;;;;;5072055;28;43462;-58
2022/10/28 10:44:43;;;;;;;4.95;2.13;;;22.40;64.60;;;;;;5060838;28;43441;-59
2022/10/28 10:47:12;;;;;;;2.33;2.13;;;22.40;64.70;;;;;;5073312;28;44680;-58
2022/10/28 10:49:39;;;;;;;3.03;2.25;;;22.30;64.60;;;;;;5061103;28;43697;-58
2022/10/28 10:52:22;;;;;;;1.95;1.85;;;22.30;64.70;;;;;;5071860;28;43392;-59
2022/10/28 10:55:17;;;;;;;2.90;2.17;;;22.30;64.70;;;;;;5073750;28;43623;-59
2022/10/28 10:57:46;;;;;;;2.80;1.98;;;22.30;64.80;;;;;;5073145;28;43904;-59
2022/10/28 11:00:20;;;;;;;2.30;1.98;;;22.30;64.90;;;;;;5063449;28;43792;-59
2022/10/28 11:02:48;;;;;;;2.50;2.30;;;22.30;64.90;;;;;;5070260;28;43504;-59
2022/10/28 11:05:23;;;;;;;3.72;1.90;;;22.30;64.90;;;;;;5063123;28;43491;-60
2022/10/28 11:08:03;;;;;;;3.20;2.00;;;22.30;65.00;;;;;;5067680;28;43879;-59
2022/10/28 11:10:33;;;;;;;2.45;2.22;;;22.30;65.00;;;;;;5071360;28;43647;-58
2022/10/28 11:13:25;;;;;;;2.55;2.13;;;22.20;64.90;;;;;;5067386;28;43431;-59
2022/10/28 11:16:16;;;;;;;2.65;2.00;;;22.20;65.00;;;;;;5064028;28;43404;-60
2022/10/28 11:18:46;;;;;;;2.95;2.05;;;22.20;65.10;;;;;;5078799;28;43769;-59
2022/10/28 11:21:50;;;;;;;3.65;2.15;;;22.20;65.20;;;;;;5067420;28;43698;-60
2022/10/28 11:24:24;;;;;;;2.58;1.92;;;22.20;65.10;;;;;;5060569;28;43492;-59
2022/10/28 11:27:14;;;;;;;1.95;1.80;;;22.10;65.20;;;;;;5062266;28;43508;-60
2022/10/28 11:29:44;;;;;;;3.17;2.30;;;22.10;65.30;;;;;;5062973;28;43947;-59
2022/10/28 11:32:42;;;;;;;2.83;2.05;;;22.10;65.30;;;;;;5066034;28;43673;-59
2022/10/28 11:35:47;;;;;;;4.10;2.03;;;22.20;65.40;;;;;;5066317;28;44046;-60
2022/10/28 11:38:20;;;;;;;2.78;1.98;;;22.20;65.40;;;;;;5065237;28;43539;-59
2022/10/28 11:41:15;;;;;;;2.22;2.03;;;22.20;65.50;;;;;;5063577;28;43784;-60
2022/10/28 11:43:48;;;;;;;3.63;2.00;;;22.20;65.40;;;;;;5069018;28;43500;-60
2022/10/28 11:46:59;;;;;;;3.40;2.03;;;22.20;65.30;;;;;;5064479;28;43428;-60
2022/10/28 11:49:47;;;;;;;3.95;2.17;;;22.20;65.30;;;;;;5062261;28;43513;-61
2022/10/28 11:52:26;;;;;;;4.00;2.15;;;22.10;65.30;;;;;;5063281;28;43900;-60
2022/10/28 11:55:00;;;;;;;3.85;2.28;;;22.20;65.30;;;;;;5066280;28;43448;-60
2022/10/28 11:57:42;;;;;;;2.92;2.00;;;22.20;65.40;;;;;;5063407;28;44042;-60
2022/10/28 12:00:54;;;;;;;3.15;2.00;;;22.10;65.30;;;;;;5062985;28;43620;-60
2022/10/28 12:03:43;;;;;;;2.03;1.80;;;22.10;65.20;;;;;;5062681;28;43830;-60
2022/10/28 12:06:33;;;;;;;3.13;2.17;;;22.10;65.20;;;;;;5064378;28;43539;-60
2022/10/28 12:09:14;;;;;;;2.58;2.30;;;22.10;65.20;;;;;;5064643;28;43458;-60
2022/10/28 12:12:03;;;;;;;2.20;2.00;;;22.10;65.30;;;;;;5064653;28;43435;-60
2022/10/28 12:14:42;;;;;;;2.95;1.90;;;22.10;65.40;;;;;;5060482;28;45094;-60
2022/10/28 12:17:25;;;;;;;2.35;2.10;;;22.10;65.20;;;;;;5065820;28;43495;-60
2022/10/28 12:20:10;;;;;;;4.45;2.00;;;22.10;65.20;;;;;;5061515;28;43555;-60
2022/10/28 12:23:11;;;;;;;4.18;2.33;;;22.10;65.30;;;;;;5059220;28;43417;-60
2022/10/28 12:25:42;;;;;;;2.08;1.88;;;22.10;65.20;;;;;;5032605;28;45101;-60
2022/10/28 12:28:22;;;;;;;2.33;2.08;;;22.10;65.30;;;;;;5070430;28;43527;-59
2022/10/28 12:30:51;;;;;;;3.17;1.80;;;22.10;65.30;;;;;;5065278;28;43364;-60
2022/10/28 12:33:37;;;;;;;1.73;1.63;;;22.10;65.20;;;;;;5078407;28;43453;-59
2022/10/28 12:36:04;;;;;;;3.42;2.00;;;22.10;65.30;;;;;;5065385;28;43750;-60
2022/10/28 12:38:41;;;;;;;2.95;2.08;;;22.00;65.30;;;;;;5076371;28;43407;-60
2022/10/28 12:41:16;;;;;;;2.75;1.80;;;22.00;65.30;;;;;;5078081;28;43389;-59
2022/10/28 12:44:08;;;;;;;2.50;2.20;;;22.00;65.20;;;;;;5073832;28;43519;-60
2022/10/28 12:46:50;;;;;;;2.10;1.70;;;22.00;65.20;;;;;;5065777;28;43902;-61
2022/10/28 12:49:38;;;;;;;2.50;2.30;;;22.00;65.40;;;;;;5067488;28;43687;-60
2022/10/28 12:52:21;;;;;;;2.25;1.98;;;22.00;65.40;;;;;;5065440;27;43438;-60
2022/10/28 12:54:57;;;;;;;1.88;1.77;;;22.00;65.40;;;;;;5071302;28;43460;-59
2022/10/28 12:57:26;;;;;;;2.42;2.10;;;22.00;65.50;;;;;;5070707;28;43758;-60
2022/10/28 13:00:18;;;;;;;2.00;1.90;;;22.00;65.70;;;;;;5065433;28;43471;-60
2022/10/28 13:03:00;;;;;;;3.03;2.13;;;22.00;65.70;;;;;;5066298;28;43363;-59
2022/10/28 13:05:40;;;;;;;2.70;2.10;;;22.00;65.70;;;;;;5046630;28;43604;-60
2022/10/28 13:08:46;;;;;;;2.20;2.00;;;22.00;65.70;;;;;;5065179;28;43788;-59
2022/10/28 13:11:19;;;;;;;2.90;2.15;;;22.00;65.70;;;;;;5065876;28;43451;-60
2022/10/28 13:13:50;;;;;;;2.33;1.98;;;22.00;65.80;;;;;;5069667;28;43369;-60
2022/10/28 13:16:26;;;;;;;2.13;1.85;;;22.00;65.80;;;;;;5073339;28;43554;-60
2022/10/28 13:19:19;;;;;;;2.17;1.98;;;22.00;65.80;;;;;;5073534;28;43816;-60
2022/10/28 13:22:06;;;;;;;4.18;2.00;;;22.00;65.80;;;;;;5069728;28;43547;-60
2022/10/28 13:24:43;;;;;;;2.33;2.08;;;22.00;65.90;;;;;;5070265;28;43438;-60